FBARA LFML-GMMN
Flight info
| Callsign | FBARA |
|---|---|
| Flight time | 2h 12m |
| Altitude | 39000 |
| Route | MAMES DCT BISBA DCT BGR DCT NENDA DCT BCN DCT RODRA DCT PEXOT DCT EBROX DCT LOTOS DCT TORDU DCT DIKUT DCT SOPET DCT VLC DCT SERRA DCT ASTRO DCT POBOS DCT XEBAR DCT YES DCT MAMIS DCT BAZAS DCT VIBAS DCT MGA DCT PIMOS DCT GALTO UB11 TUSOR |
| Aircraft | CL60/M-SBDE1E2E3FGHIJ1J4J5J7M3RWXYZ/LB1V1D1 |
Departure
| Time | 2026-04-27 15:19 |
|---|---|
| Airport | Marseille Provence Airport (LFML) |
Arrival
| Time | 2026-04-27 17:32 |
|---|---|
| Airport | Mohammed V International Airport (GMMN) |
| Time | Latitude | Longitude | Altitude | Speed | Heading |
|---|---|---|---|---|---|
| 2026-04-27 14:37 | 43.44360 | 5.21470 | 30 ft | 0 kts | 331° |
| 2026-04-27 15:05 | 43.44369 | 5.21463 | 29 ft | 7 kts | 330° |
| 2026-04-27 15:05 | 43.44375 | 5.21403 | 29 ft | 9 kts | 206° |
| 2026-04-27 15:06 | 43.44309 | 5.21424 | 30 ft | 10 kts | 185° |
| 2026-04-27 15:06 | 43.44266 | 5.21337 | 29 ft | 13 kts | 242° |
| 2026-04-27 15:06 | 43.44217 | 5.21218 | 28 ft | 8 kts | 239° |
| 2026-04-27 15:06 | 43.44167 | 5.21164 | 28 ft | 10 kts | 177° |
| 2026-04-27 15:07 | 43.44104 | 5.21224 | 29 ft | 11 kts | 134° |
| 2026-04-27 15:07 | 43.44043 | 5.21310 | 31 ft | 12 kts | 135° |
| 2026-04-27 15:07 | 43.43978 | 5.21403 | 33 ft | 14 kts | 132° |
| 2026-04-27 15:07 | 43.43918 | 5.21507 | 36 ft | 14 kts | 96° |
| 2026-04-27 15:08 | 43.43971 | 5.21622 | 37 ft | 8 kts | 50° |
| 2026-04-27 15:08 | 43.43975 | 5.21706 | 37 ft | 10 kts | 121° |
| 2026-04-27 15:08 | 43.43925 | 5.21782 | 40 ft | 11 kts | 133° |
| 2026-04-27 15:08 | 43.43862 | 5.21869 | 42 ft | 13 kts | 133° |
| 2026-04-27 15:09 | 43.43793 | 5.21969 | 45 ft | 14 kts | 134° |
| 2026-04-27 15:09 | 43.43707 | 5.22053 | 48 ft | 15 kts | 150° |
| 2026-04-27 15:09 | 43.43609 | 5.22130 | 51 ft | 16 kts | 149° |
| 2026-04-27 15:09 | 43.43506 | 5.22212 | 54 ft | 17 kts | 149° |
| 2026-04-27 15:10 | 43.43397 | 5.22286 | 57 ft | 18 kts | 165° |
| 2026-04-27 15:10 | 43.43291 | 5.22382 | 60 ft | 18 kts | 133° |
| 2026-04-27 15:10 | 43.43196 | 5.22497 | 63 ft | 7 kts | 172° |
| 2026-04-27 15:10 | 43.43137 | 5.22491 | 64 ft | 9 kts | 189° |
| 2026-04-27 15:11 | 43.43071 | 5.22450 | 65 ft | 11 kts | 222° |
| 2026-04-27 15:11 | 43.43040 | 5.22398 | 64 ft | 7 kts | 276° |
| 2026-04-27 15:11 | 43.43087 | 5.22334 | 63 ft | 12 kts | 311° |
| 2026-04-27 15:11 | 43.43115 | 5.22293 | 62 ft | 0 kts | 314° |
| 2026-04-27 15:12 | 43.43116 | 5.22292 | 62 ft | 1 kts | 314° |
| 2026-04-27 15:12 | 43.43274 | 5.22066 | 55 ft | 79 kts | 314° |
| 2026-04-27 15:12 | 43.43507 | 5.21734 | 46 ft | 97 kts | 313° |
| 2026-04-27 15:13 | 43.43715 | 5.21428 | 38 ft | 93 kts | 314° |
| 2026-04-27 15:13 | 43.44008 | 5.21023 | 28 ft | 9 kts | 313° |
| 2026-04-27 15:13 | 43.44016 | 5.21011 | 28 ft | 0 kts | 313° |
| 2026-04-27 15:14 | 43.44020 | 5.21006 | 28 ft | 2 kts | 314° |
| 2026-04-27 15:14 | 43.44049 | 5.20969 | 27 ft | 8 kts | 328° |
| 2026-04-27 15:14 | 43.44117 | 5.20979 | 26 ft | 12 kts | 43° |
| 2026-04-27 15:14 | 43.44162 | 5.21090 | 27 ft | 14 kts | 75° |
| 2026-04-27 15:15 | 43.44115 | 5.21207 | 29 ft | 15 kts | 135° |
| 2026-04-27 15:15 | 43.44037 | 5.21318 | 32 ft | 16 kts | 133° |
| 2026-04-27 15:15 | 43.43956 | 5.21434 | 34 ft | 17 kts | 134° |
| 2026-04-27 15:15 | 43.43921 | 5.21542 | 36 ft | 9 kts | 72° |
| 2026-04-27 15:16 | 43.43972 | 5.21624 | 37 ft | 12 kts | 51° |
| 2026-04-27 15:16 | 43.43955 | 5.21739 | 38 ft | 14 kts | 131° |
| 2026-04-27 15:16 | 43.43885 | 5.21837 | 41 ft | 14 kts | 133° |
| 2026-04-27 15:16 | 43.43814 | 5.21939 | 44 ft | 14 kts | 134° |
| 2026-04-27 15:17 | 43.43733 | 5.22034 | 47 ft | 15 kts | 148° |
| 2026-04-27 15:17 | 43.43639 | 5.22105 | 50 ft | 15 kts | 151° |
| 2026-04-27 15:17 | 43.43544 | 5.22183 | 53 ft | 15 kts | 148° |
| 2026-04-27 15:17 | 43.43448 | 5.22261 | 56 ft | 16 kts | 151° |
| 2026-04-27 15:18 | 43.43385 | 5.22283 | 57 ft | 7 kts | 199° |
| 2026-04-27 15:18 | 43.43334 | 5.22197 | 57 ft | 11 kts | 258° |
| 2026-04-27 15:18 | 43.43332 | 5.22066 | 54 ft | 15 kts | 268° |
| 2026-04-27 15:18 | 43.43324 | 5.21999 | 54 ft | 5 kts | 275° |
| 2026-04-27 15:19 | 43.43362 | 5.21941 | 52 ft | 15 kts | 315° |
| 2026-04-27 15:19 | 43.43641 | 5.21544 | 41 ft | 105 kts | 313° |
| 2026-04-27 15:19 | 43.44335 | 5.20551 | 178 ft | 168 kts | 311° |
| 2026-04-27 15:19 | 43.45174 | 5.19343 | 882 ft | 185 kts | 311° |
| 2026-04-27 15:20 | 43.46085 | 5.18048 | 1789 ft | 194 kts | 313° |
| 2026-04-27 15:20 | 43.47008 | 5.16686 | 2807 ft | 199 kts | 309° |
| 2026-04-27 15:20 | 43.47534 | 5.14935 | 3709 ft | 213 kts | 277° |
| 2026-04-27 15:20 | 43.47315 | 5.12892 | 4475 ft | 225 kts | 243° |
| 2026-04-27 15:21 | 43.46179 | 5.11368 | 5328 ft | 241 kts | 203° |
| 2026-04-27 15:21 | 43.44562 | 5.10700 | 6292 ft | 247 kts | 194° |
| 2026-04-27 15:21 | 43.42903 | 5.10127 | 7287 ft | 250 kts | 194° |
| 2026-04-27 15:21 | 43.41237 | 5.09532 | 8283 ft | 253 kts | 194° |
| 2026-04-27 15:22 | 43.39537 | 5.08920 | 9304 ft | 257 kts | 195° |
| 2026-04-27 15:22 | 43.37788 | 5.08310 | 10382 ft | 267 kts | 193° |
| 2026-04-27 15:22 | 43.35965 | 5.07718 | 11524 ft | 275 kts | 193° |
| 2026-04-27 15:22 | 43.34117 | 5.07118 | 12666 ft | 279 kts | 193° |
| 2026-04-27 15:23 | 43.32255 | 5.06512 | 13795 ft | 282 kts | 193° |
| 2026-04-27 15:23 | 43.30241 | 5.05856 | 14100 ft | 317 kts | 193° |
| 2026-04-27 15:23 | 43.27982 | 5.05118 | 14560 ft | 343 kts | 193° |
| 2026-04-27 15:23 | 43.25609 | 5.04342 | 15307 ft | 356 kts | 193° |
| 2026-04-27 15:24 | 43.23205 | 5.03549 | 16201 ft | 362 kts | 195° |
| 2026-04-27 15:24 | 43.20846 | 5.02228 | 17083 ft | 365 kts | 213° |
| 2026-04-27 15:24 | 43.18930 | 4.99989 | 17945 ft | 367 kts | 230° |
| 2026-04-27 15:24 | 43.17308 | 4.97281 | 18734 ft | 373 kts | 232° |
| 2026-04-27 15:25 | 43.15642 | 4.94470 | 19534 ft | 378 kts | 232° |
| 2026-04-27 15:25 | 43.13986 | 4.91686 | 20299 ft | 383 kts | 232° |
| 2026-04-27 15:25 | 43.12306 | 4.88865 | 21023 ft | 388 kts | 232° |
| 2026-04-27 15:25 | 43.10569 | 4.85954 | 21708 ft | 393 kts | 232° |
| 2026-04-27 15:26 | 43.08839 | 4.83057 | 22398 ft | 397 kts | 232° |
| 2026-04-27 15:26 | 43.07082 | 4.80119 | 23054 ft | 401 kts | 232° |
| 2026-04-27 15:26 | 43.05171 | 4.77323 | 23721 ft | 405 kts | 220° |
| 2026-04-27 15:26 | 43.02868 | 4.75082 | 24363 ft | 409 kts | 215° |
| 2026-04-27 15:27 | 43.00519 | 4.72906 | 24932 ft | 414 kts | 215° |
| 2026-04-27 15:27 | 42.98122 | 4.70679 | 25558 ft | 416 kts | 216° |
| 2026-04-27 15:27 | 42.95713 | 4.68442 | 26125 ft | 420 kts | 216° |
| 2026-04-27 15:27 | 42.93306 | 4.66210 | 26660 ft | 423 kts | 216° |
| 2026-04-27 15:28 | 42.90849 | 4.63932 | 27204 ft | 426 kts | 216° |
| 2026-04-27 15:28 | 42.88375 | 4.61641 | 27753 ft | 427 kts | 216° |
| 2026-04-27 15:28 | 42.85921 | 4.59371 | 28301 ft | 429 kts | 216° |
| 2026-04-27 15:28 | 42.83439 | 4.57078 | 28852 ft | 430 kts | 216° |
| 2026-04-27 15:29 | 42.80978 | 4.54805 | 29395 ft | 430 kts | 216° |
| 2026-04-27 15:29 | 42.78481 | 4.52502 | 29933 ft | 430 kts | 216° |
| 2026-04-27 15:29 | 42.75995 | 4.50211 | 30418 ft | 431 kts | 216° |
| 2026-04-27 15:29 | 42.73485 | 4.47899 | 30771 ft | 435 kts | 216° |
| 2026-04-27 15:30 | 42.70943 | 4.45561 | 31125 ft | 439 kts | 216° |
| 2026-04-27 15:30 | 42.68388 | 4.43213 | 31506 ft | 441 kts | 216° |
| 2026-04-27 15:30 | 42.65839 | 4.40872 | 31870 ft | 443 kts | 216° |
| 2026-04-27 15:30 | 42.63285 | 4.38530 | 32211 ft | 445 kts | 216° |
| 2026-04-27 15:31 | 42.60749 | 4.36207 | 32539 ft | 446 kts | 216° |
| 2026-04-27 15:31 | 42.58143 | 4.33821 | 32844 ft | 449 kts | 216° |
| 2026-04-27 15:31 | 42.55564 | 4.31464 | 33139 ft | 450 kts | 216° |
| 2026-04-27 15:31 | 42.52955 | 4.29080 | 33443 ft | 452 kts | 216° |
| 2026-04-27 15:32 | 42.50303 | 4.26661 | 33715 ft | 453 kts | 216° |
| 2026-04-27 15:32 | 42.47692 | 4.24280 | 34013 ft | 454 kts | 215° |
| 2026-04-27 15:32 | 42.45052 | 4.21877 | 34410 ft | 452 kts | 215° |
| 2026-04-27 15:32 | 42.42471 | 4.19529 | 34748 ft | 450 kts | 216° |
| 2026-04-27 15:33 | 42.39862 | 4.17159 | 35066 ft | 449 kts | 216° |
| 2026-04-27 15:33 | 42.37250 | 4.14788 | 35373 ft | 447 kts | 216° |
| 2026-04-27 15:33 | 42.34663 | 4.12442 | 35660 ft | 446 kts | 216° |
| 2026-04-27 15:33 | 42.32112 | 4.10131 | 35939 ft | 445 kts | 216° |
| 2026-04-27 15:34 | 42.29522 | 4.07787 | 36212 ft | 443 kts | 216° |
| 2026-04-27 15:34 | 42.26975 | 4.05482 | 36470 ft | 442 kts | 216° |
| 2026-04-27 15:34 | 42.24499 | 4.02966 | 36788 ft | 439 kts | 223° |
| 2026-04-27 15:34 | 42.22319 | 4.00117 | 37083 ft | 436 kts | 230° |
| 2026-04-27 15:35 | 42.20444 | 3.96959 | 37361 ft | 434 kts | 237° |
| 2026-04-27 15:35 | 42.18855 | 3.93465 | 37620 ft | 431 kts | 244° |
| 2026-04-27 15:35 | 42.17587 | 3.89831 | 37845 ft | 430 kts | 248° |
| 2026-04-27 15:35 | 42.16386 | 3.86140 | 38063 ft | 430 kts | 248° |
| 2026-04-27 15:36 | 42.15181 | 3.82457 | 38291 ft | 430 kts | 248° |
| 2026-04-27 15:36 | 42.13966 | 3.78749 | 38525 ft | 430 kts | 248° |
| 2026-04-27 15:36 | 42.12757 | 3.75067 | 38762 ft | 428 kts | 248° |
| 2026-04-27 15:36 | 42.11566 | 3.71443 | 38969 ft | 428 kts | 248° |
| 2026-04-27 15:37 | 42.09143 | 3.64086 | 39061 ft | 431 kts | 248° |
| 2026-04-27 15:37 | 42.06700 | 3.56689 | 39063 ft | 430 kts | 248° |
| 2026-04-27 15:38 | 42.04273 | 3.49364 | 39065 ft | 427 kts | 248° |
| 2026-04-27 15:38 | 42.01849 | 3.42065 | 39053 ft | 427 kts | 248° |
| 2026-04-27 15:39 | 41.99411 | 3.34746 | 39049 ft | 427 kts | 247° |
| 2026-04-27 15:39 | 41.96994 | 3.27510 | 39053 ft | 427 kts | 247° |
| 2026-04-27 15:40 | 41.94360 | 3.20309 | 39051 ft | 429 kts | 239° |
| 2026-04-27 15:40 | 41.90755 | 3.13854 | 39048 ft | 430 kts | 234° |
| 2026-04-27 15:41 | 41.87083 | 3.07450 | 39052 ft | 430 kts | 234° |
| 2026-04-27 15:41 | 41.83444 | 3.01116 | 39054 ft | 431 kts | 234° |
| 2026-04-27 15:42 | 41.79764 | 2.94724 | 39052 ft | 430 kts | 234° |
| 2026-04-27 15:42 | 41.76079 | 2.88337 | 39062 ft | 429 kts | 234° |
| 2026-04-27 15:43 | 41.72426 | 2.82019 | 39058 ft | 429 kts | 234° |
| 2026-04-27 15:43 | 41.68700 | 2.75588 | 39049 ft | 436 kts | 234° |
| 2026-04-27 15:44 | 41.64945 | 2.69120 | 39065 ft | 441 kts | 234° |
| 2026-04-27 15:44 | 41.61133 | 2.62568 | 39062 ft | 445 kts | 234° |
| 2026-04-27 15:45 | 41.57314 | 2.56019 | 39072 ft | 447 kts | 234° |
| 2026-04-27 15:45 | 41.53472 | 2.49446 | 39068 ft | 447 kts | 234° |
| 2026-04-27 15:46 | 41.49628 | 2.42884 | 39058 ft | 446 kts | 234° |
| 2026-04-27 15:46 | 41.45819 | 2.36394 | 39076 ft | 445 kts | 234° |
| 2026-04-27 15:47 | 41.42006 | 2.29913 | 39087 ft | 445 kts | 233° |
| 2026-04-27 15:47 | 41.38156 | 2.23380 | 39088 ft | 445 kts | 233° |
| 2026-04-27 15:48 | 41.34318 | 2.16883 | 39084 ft | 445 kts | 233° |
| 2026-04-27 15:49 | 41.28413 | 2.07346 | 39075 ft | 446 kts | 230° |
| 2026-04-27 15:49 | 41.24277 | 2.01227 | 39077 ft | 446 kts | 230° |
| 2026-04-27 15:50 | 41.20122 | 1.95087 | 39073 ft | 445 kts | 230° |
| 2026-04-27 15:50 | 41.15936 | 1.88912 | 39058 ft | 445 kts | 230° |
| 2026-04-27 15:51 | 41.11797 | 1.82818 | 39051 ft | 445 kts | 230° |
| 2026-04-27 15:51 | 41.07655 | 1.76731 | 39051 ft | 445 kts | 230° |
| 2026-04-27 15:52 | 41.03509 | 1.70650 | 39054 ft | 445 kts | 230° |
| 2026-04-27 15:52 | 40.99324 | 1.64525 | 39048 ft | 446 kts | 230° |
| 2026-04-27 15:53 | 40.95147 | 1.58424 | 39049 ft | 446 kts | 230° |
| 2026-04-27 15:53 | 40.90974 | 1.52340 | 39049 ft | 446 kts | 230° |
| 2026-04-27 15:54 | 40.86808 | 1.46278 | 39058 ft | 446 kts | 230° |
| 2026-04-27 15:54 | 40.82613 | 1.40188 | 39055 ft | 445 kts | 230° |
| 2026-04-27 15:55 | 40.78439 | 1.34139 | 39050 ft | 445 kts | 229° |
| 2026-04-27 15:55 | 40.74289 | 1.28138 | 39049 ft | 445 kts | 229° |
| 2026-04-27 15:56 | 40.70103 | 1.22095 | 39055 ft | 445 kts | 229° |
| 2026-04-27 15:56 | 40.65910 | 1.16049 | 39052 ft | 445 kts | 229° |
| 2026-04-27 15:57 | 40.61733 | 1.10037 | 39054 ft | 445 kts | 229° |
| 2026-04-27 15:57 | 40.57544 | 1.04022 | 39050 ft | 445 kts | 229° |
| 2026-04-27 15:58 | 40.53347 | 0.98007 | 39040 ft | 445 kts | 229° |
| 2026-04-27 15:58 | 40.49157 | 0.92022 | 39037 ft | 444 kts | 229° |
| 2026-04-27 15:59 | 40.44969 | 0.86050 | 39053 ft | 444 kts | 229° |
| 2026-04-27 15:59 | 40.40765 | 0.80068 | 39042 ft | 444 kts | 229° |
| 2026-04-27 16:00 | 40.36588 | 0.74137 | 39037 ft | 445 kts | 229° |
| 2026-04-27 16:00 | 40.32382 | 0.68175 | 39044 ft | 444 kts | 229° |
| 2026-04-27 16:01 | 40.28173 | 0.62221 | 39042 ft | 444 kts | 229° |
| 2026-04-27 16:01 | 40.23954 | 0.56265 | 39034 ft | 444 kts | 229° |
| 2026-04-27 16:02 | 40.19749 | 0.50339 | 39036 ft | 443 kts | 229° |
| 2026-04-27 16:02 | 40.15557 | 0.44445 | 39045 ft | 443 kts | 230° |
| 2026-04-27 16:03 | 40.11338 | 0.38522 | 39048 ft | 443 kts | 229° |
| 2026-04-27 16:03 | 40.07128 | 0.32625 | 39047 ft | 443 kts | 229° |
| 2026-04-27 16:04 | 40.02884 | 0.26691 | 39043 ft | 444 kts | 229° |
| 2026-04-27 16:04 | 39.98667 | 0.20808 | 39051 ft | 443 kts | 229° |
| 2026-04-27 16:05 | 39.94433 | 0.14911 | 39052 ft | 443 kts | 229° |
| 2026-04-27 16:05 | 39.90182 | 0.09002 | 39051 ft | 443 kts | 229° |
| 2026-04-27 16:06 | 39.85948 | 0.03128 | 39051 ft | 443 kts | 229° |
| 2026-04-27 16:06 | 39.81709 | -0.02743 | 39049 ft | 443 kts | 229° |
| 2026-04-27 16:07 | 39.77467 | -0.08606 | 39050 ft | 442 kts | 229° |
| 2026-04-27 16:07 | 39.73228 | -0.14454 | 39050 ft | 442 kts | 229° |
| 2026-04-27 16:08 | 39.68984 | -0.20298 | 39057 ft | 441 kts | 229° |
| 2026-04-27 16:08 | 39.64764 | -0.26098 | 39064 ft | 441 kts | 229° |
| 2026-04-27 16:09 | 39.60544 | -0.31887 | 39073 ft | 441 kts | 229° |
| 2026-04-27 16:09 | 39.54187 | -0.40588 | 39070 ft | 441 kts | 229° |
| 2026-04-27 16:10 | 39.46048 | -0.52556 | 39059 ft | 439 kts | 235° |
| 2026-04-27 16:11 | 39.40508 | -0.62014 | 39075 ft | 437 kts | 235° |
| 2026-04-27 16:12 | 39.34963 | -0.71452 | 39087 ft | 437 kts | 234° |
| 2026-04-27 16:13 | 39.29425 | -0.80851 | 39085 ft | 438 kts | 234° |
| 2026-04-27 16:13 | 39.23860 | -0.90265 | 39084 ft | 437 kts | 234° |
| 2026-04-27 16:14 | 39.16452 | -1.02758 | 39089 ft | 438 kts | 234° |
| 2026-04-27 16:15 | 39.09019 | -1.15243 | 39084 ft | 436 kts | 234° |
| 2026-04-27 16:16 | 39.01597 | -1.27662 | 39076 ft | 435 kts | 234° |
| 2026-04-27 16:17 | 38.94173 | -1.40034 | 39070 ft | 435 kts | 234° |
| 2026-04-27 16:18 | 38.86710 | -1.52426 | 39069 ft | 435 kts | 234° |
| 2026-04-27 16:19 | 38.82982 | -1.58598 | 39082 ft | 434 kts | 234° |
| 2026-04-27 16:20 | 38.75540 | -1.70883 | 39073 ft | 433 kts | 233° |
| 2026-04-27 16:21 | 38.69966 | -1.80055 | 39064 ft | 433 kts | 233° |
| 2026-04-27 16:22 | 38.62512 | -1.92278 | 39087 ft | 432 kts | 233° |
| 2026-04-27 16:22 | 38.56920 | -2.01418 | 39076 ft | 433 kts | 233° |
| 2026-04-27 16:23 | 38.51312 | -2.10559 | 39088 ft | 432 kts | 233° |
| 2026-04-27 16:24 | 38.47558 | -2.16663 | 39084 ft | 432 kts | 233° |
| 2026-04-27 16:25 | 38.40099 | -2.28758 | 39078 ft | 432 kts | 233° |
| 2026-04-27 16:26 | 38.32290 | -2.40407 | 39093 ft | 432 kts | 228° |
| 2026-04-27 16:27 | 38.23948 | -2.51586 | 39096 ft | 432 kts | 228° |
| 2026-04-27 16:28 | 38.13524 | -2.65511 | 39093 ft | 432 kts | 227° |
| 2026-04-27 16:29 | 38.03146 | -2.79321 | 39093 ft | 431 kts | 227° |
| 2026-04-27 16:30 | 37.94833 | -2.90342 | 39063 ft | 431 kts | 227° |
| 2026-04-27 16:31 | 37.84486 | -3.04006 | 39037 ft | 433 kts | 227° |
| 2026-04-27 16:32 | 37.78216 | -3.12259 | 39054 ft | 432 kts | 227° |
| 2026-04-27 16:33 | 37.71957 | -3.20475 | 39045 ft | 432 kts | 227° |
| 2026-04-27 16:33 | 37.67759 | -3.25973 | 39040 ft | 431 kts | 227° |
| 2026-04-27 16:34 | 37.63581 | -3.31437 | 39044 ft | 430 kts | 227° |
| 2026-04-27 16:34 | 37.59409 | -3.36884 | 39042 ft | 431 kts | 227° |
| 2026-04-27 16:35 | 37.55226 | -3.42334 | 39049 ft | 431 kts | 227° |
| 2026-04-27 16:36 | 37.48935 | -3.50515 | 39048 ft | 432 kts | 227° |
| 2026-04-27 16:36 | 37.44720 | -3.55984 | 39046 ft | 432 kts | 226° |
| 2026-04-27 16:37 | 37.40504 | -3.61444 | 39032 ft | 432 kts | 226° |
| 2026-04-27 16:37 | 37.36320 | -3.66855 | 39044 ft | 431 kts | 226° |
| 2026-04-27 16:38 | 37.32127 | -3.72267 | 39036 ft | 431 kts | 226° |
| 2026-04-27 16:38 | 37.27923 | -3.77684 | 39027 ft | 431 kts | 226° |
| 2026-04-27 16:39 | 37.23707 | -3.83107 | 39022 ft | 431 kts | 226° |
| 2026-04-27 16:39 | 37.19503 | -3.88506 | 39029 ft | 431 kts | 226° |
| 2026-04-27 16:40 | 37.15305 | -3.93887 | 39038 ft | 431 kts | 226° |
| 2026-04-27 16:40 | 37.11063 | -3.99316 | 39025 ft | 432 kts | 226° |
| 2026-04-27 16:41 | 37.06848 | -4.04702 | 39037 ft | 431 kts | 226° |
| 2026-04-27 16:41 | 37.02638 | -4.10071 | 39028 ft | 431 kts | 226° |
| 2026-04-27 16:42 | 36.98434 | -4.15424 | 39032 ft | 431 kts | 226° |
| 2026-04-27 16:42 | 36.94210 | -4.20793 | 39023 ft | 432 kts | 226° |
| 2026-04-27 16:43 | 36.89966 | -4.26179 | 39011 ft | 431 kts | 226° |
| 2026-04-27 16:43 | 36.85749 | -4.31522 | 38988 ft | 432 kts | 226° |
| 2026-04-27 16:44 | 36.81449 | -4.36737 | 38982 ft | 431 kts | 220° |
| 2026-04-27 16:44 | 36.76443 | -4.40942 | 38970 ft | 432 kts | 213° |
| 2026-04-27 16:45 | 36.71337 | -4.45005 | 38974 ft | 432 kts | 213° |
| 2026-04-27 16:45 | 36.66260 | -4.49039 | 38974 ft | 433 kts | 213° |
| 2026-04-27 16:46 | 36.61177 | -4.53070 | 38972 ft | 433 kts | 213° |
| 2026-04-27 16:46 | 36.56102 | -4.57088 | 38973 ft | 432 kts | 213° |
| 2026-04-27 16:47 | 36.51023 | -4.61103 | 38972 ft | 432 kts | 213° |
| 2026-04-27 16:47 | 36.45918 | -4.65131 | 38967 ft | 432 kts | 213° |
| 2026-04-27 16:48 | 36.40826 | -4.69144 | 38963 ft | 432 kts | 213° |
| 2026-04-27 16:48 | 36.35731 | -4.73151 | 38963 ft | 432 kts | 213° |
| 2026-04-27 16:49 | 36.28142 | -4.79109 | 38964 ft | 432 kts | 213° |
| 2026-04-27 16:49 | 36.23024 | -4.83119 | 38966 ft | 432 kts | 213° |
| 2026-04-27 16:50 | 36.17965 | -4.87076 | 38966 ft | 432 kts | 212° |
| 2026-04-27 16:50 | 36.12880 | -4.91069 | 38966 ft | 432 kts | 213° |
| 2026-04-27 16:51 | 36.07818 | -4.95078 | 38964 ft | 432 kts | 213° |
| 2026-04-27 16:51 | 36.02730 | -4.99099 | 38961 ft | 432 kts | 213° |
| 2026-04-27 16:52 | 35.97657 | -5.03103 | 38968 ft | 431 kts | 213° |
| 2026-04-27 16:52 | 35.92595 | -5.07092 | 38962 ft | 432 kts | 213° |
| 2026-04-27 16:53 | 35.87492 | -5.11106 | 38956 ft | 432 kts | 212° |
| 2026-04-27 16:53 | 35.82401 | -5.15082 | 38957 ft | 432 kts | 211° |
| 2026-04-27 16:54 | 35.77250 | -5.18919 | 38951 ft | 433 kts | 211° |
| 2026-04-27 16:54 | 35.72064 | -5.22774 | 38940 ft | 433 kts | 211° |
| 2026-04-27 16:55 | 35.66841 | -5.26650 | 38937 ft | 433 kts | 211° |
| 2026-04-27 16:55 | 35.61669 | -5.30484 | 38936 ft | 433 kts | 211° |
| 2026-04-27 16:56 | 35.56627 | -5.34646 | 38925 ft | 433 kts | 216° |
| 2026-04-27 16:56 | 35.51714 | -5.39023 | 38927 ft | 433 kts | 216° |
| 2026-04-27 16:57 | 35.46795 | -5.43393 | 38909 ft | 433 kts | 216° |
| 2026-04-27 16:57 | 35.41888 | -5.47744 | 38918 ft | 433 kts | 216° |
| 2026-04-27 16:58 | 35.36975 | -5.52093 | 38961 ft | 434 kts | 216° |
| 2026-04-27 16:58 | 35.32070 | -5.56427 | 38954 ft | 435 kts | 216° |
| 2026-04-27 16:59 | 35.27097 | -5.60813 | 38945 ft | 435 kts | 216° |
| 2026-04-27 16:59 | 35.22136 | -5.65183 | 38904 ft | 435 kts | 215° |
| 2026-04-27 17:00 | 35.14703 | -5.71715 | 38860 ft | 434 kts | 215° |
| 2026-04-27 17:01 | 35.09764 | -5.76046 | 38814 ft | 434 kts | 215° |
| 2026-04-27 17:01 | 35.04852 | -5.80349 | 38820 ft | 434 kts | 215° |
| 2026-04-27 17:02 | 34.99898 | -5.84681 | 38790 ft | 436 kts | 214° |
| 2026-04-27 17:02 | 34.94937 | -5.89012 | 38797 ft | 436 kts | 214° |
| 2026-04-27 17:03 | 34.90011 | -5.93348 | 38784 ft | 437 kts | 217° |
| 2026-04-27 17:03 | 34.85285 | -5.98024 | 38779 ft | 437 kts | 218° |
| 2026-04-27 17:04 | 34.80817 | -6.02462 | 38787 ft | 436 kts | 218° |
| 2026-04-27 17:04 | 34.76115 | -6.07123 | 38674 ft | 436 kts | 218° |
| 2026-04-27 17:04 | 34.73754 | -6.09461 | 38780 ft | 435 kts | 218° |
| 2026-04-27 17:05 | 34.71383 | -6.11807 | 38779 ft | 436 kts | 218° |
| 2026-04-27 17:05 | 34.66668 | -6.16466 | 38781 ft | 437 kts | 218° |
| 2026-04-27 17:06 | 34.61917 | -6.21153 | 38773 ft | 438 kts | 218° |
| 2026-04-27 17:06 | 34.57188 | -6.25811 | 38773 ft | 438 kts | 218° |
| 2026-04-27 17:07 | 34.52383 | -6.30469 | 38775 ft | 437 kts | 214° |
| 2026-04-27 17:07 | 34.47013 | -6.34017 | 38317 ft | 442 kts | 200° |
| 2026-04-27 17:07 | 34.44103 | -6.35156 | 37780 ft | 440 kts | 196° |
| 2026-04-27 17:08 | 34.41154 | -6.36185 | 37233 ft | 434 kts | 196° |
| 2026-04-27 17:08 | 34.38256 | -6.37202 | 36686 ft | 427 kts | 196° |
| 2026-04-27 17:08 | 34.35407 | -6.38201 | 36148 ft | 421 kts | 196° |
| 2026-04-27 17:08 | 34.32579 | -6.39192 | 35621 ft | 418 kts | 195° |
| 2026-04-27 17:09 | 34.29787 | -6.40169 | 35033 ft | 417 kts | 195° |
| 2026-04-27 17:09 | 34.26979 | -6.41152 | 34487 ft | 415 kts | 195° |
| 2026-04-27 17:09 | 34.24199 | -6.42125 | 33921 ft | 413 kts | 195° |
| 2026-04-27 17:09 | 34.21461 | -6.43082 | 33370 ft | 410 kts | 195° |
| 2026-04-27 17:10 | 34.18710 | -6.44043 | 32843 ft | 407 kts | 195° |
| 2026-04-27 17:10 | 34.15986 | -6.44995 | 32305 ft | 404 kts | 195° |
| 2026-04-27 17:10 | 34.13295 | -6.45934 | 31775 ft | 401 kts | 195° |
| 2026-04-27 17:10 | 34.10601 | -6.46874 | 31247 ft | 398 kts | 195° |
| 2026-04-27 17:11 | 34.07941 | -6.47801 | 30722 ft | 395 kts | 195° |
| 2026-04-27 17:11 | 34.02670 | -6.49637 | 29665 ft | 390 kts | 195° |
| 2026-04-27 17:11 | 34.00104 | -6.50530 | 29160 ft | 387 kts | 195° |
| 2026-04-27 17:12 | 33.95394 | -6.53498 | 28134 ft | 383 kts | 222° |
| 2026-04-27 17:12 | 33.93481 | -6.55734 | 27608 ft | 381 kts | 223° |
| 2026-04-27 17:12 | 33.91589 | -6.57958 | 27103 ft | 377 kts | 223° |
| 2026-04-27 17:13 | 33.89708 | -6.60163 | 26605 ft | 374 kts | 223° |
| 2026-04-27 17:13 | 33.87846 | -6.62344 | 26113 ft | 371 kts | 223° |
| 2026-04-27 17:13 | 33.86003 | -6.64503 | 25620 ft | 367 kts | 223° |
| 2026-04-27 17:13 | 33.84174 | -6.66644 | 25135 ft | 364 kts | 223° |
| 2026-04-27 17:14 | 33.82374 | -6.68748 | 24656 ft | 360 kts | 223° |
| 2026-04-27 17:14 | 33.80575 | -6.70851 | 24180 ft | 356 kts | 223° |
| 2026-04-27 17:14 | 33.78812 | -6.72910 | 23710 ft | 353 kts | 223° |
| 2026-04-27 17:14 | 33.77057 | -6.74960 | 23246 ft | 349 kts | 223° |
| 2026-04-27 17:15 | 33.75328 | -6.76978 | 22787 ft | 345 kts | 223° |
| 2026-04-27 17:15 | 33.73611 | -6.78980 | 22336 ft | 340 kts | 223° |
| 2026-04-27 17:15 | 33.71921 | -6.80950 | 21888 ft | 335 kts | 223° |
| 2026-04-27 17:15 | 33.70277 | -6.82865 | 21453 ft | 331 kts | 223° |
| 2026-04-27 17:16 | 33.68617 | -6.84798 | 21017 ft | 326 kts | 222° |
| 2026-04-27 17:16 | 33.67005 | -6.86673 | 20582 ft | 325 kts | 222° |
| 2026-04-27 17:16 | 33.65352 | -6.88554 | 20170 ft | 323 kts | 218° |
| 2026-04-27 17:16 | 33.63438 | -6.89873 | 19753 ft | 318 kts | 199° |
| 2026-04-27 17:17 | 33.61321 | -6.90716 | 19337 ft | 317 kts | 198° |
| 2026-04-27 17:17 | 33.59229 | -6.91538 | 18892 ft | 316 kts | 198° |
| 2026-04-27 17:17 | 33.57144 | -6.92360 | 18485 ft | 312 kts | 198° |
| 2026-04-27 17:18 | 33.53044 | -6.93977 | 17655 ft | 307 kts | 198° |
| 2026-04-27 17:18 | 33.51016 | -6.94776 | 17248 ft | 305 kts | 198° |
| 2026-04-27 17:18 | 33.49027 | -6.95561 | 16855 ft | 303 kts | 198° |
| 2026-04-27 17:18 | 33.47024 | -6.96350 | 16470 ft | 301 kts | 198° |
| 2026-04-27 17:19 | 33.45025 | -6.97138 | 16067 ft | 301 kts | 197° |
| 2026-04-27 17:19 | 33.43048 | -6.97917 | 15658 ft | 298 kts | 197° |
| 2026-04-27 17:19 | 33.41065 | -6.98698 | 15274 ft | 297 kts | 197° |
| 2026-04-27 17:19 | 33.39113 | -6.99466 | 14873 ft | 297 kts | 197° |
| 2026-04-27 17:20 | 33.37152 | -7.00237 | 14485 ft | 295 kts | 197° |
| 2026-04-27 17:20 | 33.35195 | -7.01008 | 14099 ft | 294 kts | 197° |
| 2026-04-27 17:20 | 33.33364 | -7.02076 | 13691 ft | 295 kts | 216° |
| 2026-04-27 17:20 | 33.32008 | -7.03953 | 13269 ft | 298 kts | 237° |
| 2026-04-27 17:21 | 33.31054 | -7.06127 | 12883 ft | 296 kts | 240° |
| 2026-04-27 17:21 | 33.30110 | -7.08292 | 12497 ft | 296 kts | 239° |
| 2026-04-27 17:21 | 33.29150 | -7.10487 | 12083 ft | 296 kts | 239° |
| 2026-04-27 17:21 | 33.28203 | -7.12653 | 11687 ft | 296 kts | 240° |
| 2026-04-27 17:22 | 33.27248 | -7.14835 | 11302 ft | 295 kts | 240° |
| 2026-04-27 17:22 | 33.26302 | -7.16997 | 10892 ft | 294 kts | 240° |
| 2026-04-27 17:22 | 33.25349 | -7.19174 | 10469 ft | 294 kts | 240° |
| 2026-04-27 17:22 | 33.24405 | -7.21329 | 10064 ft | 293 kts | 241° |
| 2026-04-27 17:23 | 33.23461 | -7.23484 | 9663 ft | 289 kts | 241° |
| 2026-04-27 17:23 | 33.22535 | -7.25596 | 9259 ft | 285 kts | 241° |
| 2026-04-27 17:23 | 33.21623 | -7.27675 | 8831 ft | 281 kts | 241° |
| 2026-04-27 17:23 | 33.20729 | -7.29711 | 8413 ft | 278 kts | 241° |
| 2026-04-27 17:24 | 33.19834 | -7.31750 | 8007 ft | 276 kts | 242° |
| 2026-04-27 17:24 | 33.18934 | -7.33798 | 7629 ft | 277 kts | 242° |
| 2026-04-27 17:24 | 33.18042 | -7.35827 | 7250 ft | 276 kts | 242° |
| 2026-04-27 17:24 | 33.17159 | -7.37835 | 6896 ft | 273 kts | 242° |
| 2026-04-27 17:25 | 33.16271 | -7.39852 | 6528 ft | 271 kts | 242° |
| 2026-04-27 17:25 | 33.15401 | -7.41828 | 6164 ft | 269 kts | 243° |
| 2026-04-27 17:25 | 33.14536 | -7.43792 | 5791 ft | 265 kts | 243° |
| 2026-04-27 17:25 | 33.13771 | -7.45761 | 5423 ft | 258 kts | 255° |
| 2026-04-27 17:26 | 33.13594 | -7.47860 | 4933 ft | 254 kts | 278° |
| 2026-04-27 17:26 | 33.14112 | -7.49833 | 4505 ft | 244 kts | 301° |
| 2026-04-27 17:26 | 33.15173 | -7.51326 | 4057 ft | 236 kts | 328° |
| 2026-04-27 17:26 | 33.16656 | -7.52096 | 3696 ft | 226 kts | 340° |
| 2026-04-27 17:27 | 33.18078 | -7.52734 | 3628 ft | 206 kts | 341° |
| 2026-04-27 17:27 | 33.19375 | -7.53231 | 3630 ft | 186 kts | 343° |
| 2026-04-27 17:27 | 33.20587 | -7.53671 | 3475 ft | 174 kts | 344° |
| 2026-04-27 17:27 | 33.21701 | -7.54060 | 3277 ft | 159 kts | 344° |
| 2026-04-27 17:28 | 33.22751 | -7.54422 | 3110 ft | 158 kts | 344° |
| 2026-04-27 17:28 | 33.23817 | -7.54787 | 2880 ft | 158 kts | 344° |
| 2026-04-27 17:28 | 33.25861 | -7.55485 | 2470 ft | 133 kts | 345° |
| 2026-04-27 17:29 | 33.26718 | -7.55778 | 2323 ft | 126 kts | 343° |
| 2026-04-27 17:29 | 33.27559 | -7.56065 | 2142 ft | 123 kts | 343° |
| 2026-04-27 17:29 | 33.28378 | -7.56346 | 1999 ft | 122 kts | 343° |
| 2026-04-27 17:29 | 33.29190 | -7.56623 | 1843 ft | 121 kts | 342° |
| 2026-04-27 17:30 | 33.29994 | -7.56898 | 1693 ft | 120 kts | 342° |
| 2026-04-27 17:30 | 33.31613 | -7.57452 | 1380 ft | 120 kts | 342° |
| 2026-04-27 17:30 | 33.32423 | -7.57729 | 1223 ft | 120 kts | 343° |
| 2026-04-27 17:31 | 33.33231 | -7.58011 | 1051 ft | 120 kts | 343° |
| 2026-04-27 17:31 | 33.34041 | -7.58295 | 894 ft | 121 kts | 344° |
| 2026-04-27 17:31 | 33.34850 | -7.58567 | 756 ft | 120 kts | 342° |
| 2026-04-27 17:31 | 33.35669 | -7.58841 | 664 ft | 119 kts | 341° |
| 2026-04-27 17:32 | 33.36392 | -7.59091 | 649 ft | 91 kts | 345° |
| 2026-04-27 17:32 | 33.37030 | -7.59306 | 645 ft | 20 kts | 348° |
| 2026-04-27 17:32 | 33.37148 | -7.59322 | 646 ft | 16 kts | 359° |
| 2026-04-27 17:33 | 33.37235 | -7.59314 | 647 ft | 8 kts | 11° |
| 2026-04-27 17:33 | 33.37260 | -7.59308 | 647 ft | 0 kts | 13° |
| 2026-04-27 17:33 | 33.37276 | -7.59303 | 647 ft | 4 kts | 14° |
| 2026-04-27 17:33 | 33.37316 | -7.59291 | 647 ft | 7 kts | 14° |
| 2026-04-27 17:34 | 33.37378 | -7.59274 | 648 ft | 10 kts | 12° |
| 2026-04-27 17:34 | 33.37462 | -7.59249 | 648 ft | 13 kts | 15° |
| 2026-04-27 17:34 | 33.37550 | -7.59223 | 649 ft | 9 kts | 13° |
| 2026-04-27 17:34 | 33.37624 | -7.59202 | 649 ft | 12 kts | 13° |
| 2026-04-27 17:35 | 33.37720 | -7.59178 | 649 ft | 10 kts | 14° |
| 2026-04-27 17:35 | 33.37798 | -7.59131 | 648 ft | 14 kts | 49° |
| 2026-04-27 17:35 | 33.37825 | -7.59053 | 647 ft | 11 kts | 72° |
| 2026-04-27 17:35 | 33.37852 | -7.58942 | 644 ft | 8 kts | 73° |
| 2026-04-27 17:36 | 33.37873 | -7.58845 | 641 ft | 14 kts | 95° |
| 2026-04-27 17:36 | 33.37808 | -7.58792 | 641 ft | 13 kts | 164° |
| 2026-04-27 17:36 | 33.37706 | -7.58757 | 640 ft | 17 kts | 165° |
| 2026-04-27 17:36 | 33.37608 | -7.58723 | 642 ft | 13 kts | 164° |
| 2026-04-27 17:37 | 33.37518 | -7.58693 | 644 ft | 12 kts | 164° |
| 2026-04-27 17:37 | 33.37442 | -7.58666 | 645 ft | 12 kts | 164° |
| 2026-04-27 17:37 | 33.37345 | -7.58634 | 646 ft | 16 kts | 164° |
| 2026-04-27 17:37 | 33.37219 | -7.58591 | 645 ft | 21 kts | 163° |
| 2026-04-27 17:38 | 33.37097 | -7.58548 | 643 ft | 12 kts | 164° |
| 2026-04-27 17:38 | 33.36994 | -7.58512 | 640 ft | 18 kts | 164° |
| 2026-04-27 17:38 | 33.36918 | -7.58485 | 639 ft | 8 kts | 157° |
| 2026-04-27 17:38 | 33.36905 | -7.58411 | 639 ft | 11 kts | 70° |
| 2026-04-27 17:39 | 33.36931 | -7.58307 | 639 ft | 9 kts | 74° |
| 2026-04-27 17:39 | 33.36937 | -7.58284 | 639 ft | 10 kts | 73° |
| 2026-04-27 17:39 | 33.36930 | -7.58193 | 639 ft | 13 kts | 155° |
| 2026-04-27 17:39 | 33.36826 | -7.58157 | 640 ft | 17 kts | 164° |
| 2026-04-27 17:40 | 33.36698 | -7.58113 | 641 ft | 20 kts | 163° |
| 2026-04-27 17:40 | 33.36578 | -7.58073 | 644 ft | 12 kts | 173° |
| 2026-04-27 17:40 | 33.36492 | -7.58109 | 648 ft | 13 kts | 207° |
| 2026-04-27 17:40 | 33.36396 | -7.58130 | 650 ft | 15 kts | 163° |
| 2026-04-27 17:41 | 33.36282 | -7.58089 | 653 ft | 18 kts | 164° |
| 2026-04-27 17:41 | 33.36149 | -7.58045 | 654 ft | 21 kts | 164° |
| 2026-04-27 17:41 | 33.36008 | -7.57998 | 654 ft | 15 kts | 164° |
| 2026-04-27 17:41 | 33.35894 | -7.57959 | 653 ft | 19 kts | 165° |
| 2026-04-27 17:42 | 33.35753 | -7.57910 | 654 ft | 22 kts | 165° |
| 2026-04-27 17:42 | 33.35635 | -7.57864 | 655 ft | 6 kts | 132° |
| 2026-04-27 17:42 | 33.35641 | -7.57808 | 656 ft | 8 kts | 74° |
| 2026-04-27 17:42 | 33.35662 | -7.57726 | 656 ft | 12 kts | 72° |
| 2026-04-27 17:43 | 33.35691 | -7.57616 | 657 ft | 15 kts | 76° |
| 2026-04-27 17:43 | 33.35722 | -7.57477 | 657 ft | 19 kts | 75° |
| 2026-04-27 17:43 | 33.35744 | -7.57388 | 658 ft | 11 kts | 73° |
| 2026-04-27 17:43 | 33.35770 | -7.57284 | 658 ft | 14 kts | 75° |
| 2026-04-27 17:44 | 33.35774 | -7.57253 | 658 ft | 3 kts | 119° |
| 2026-04-27 17:44 | 33.35736 | -7.57238 | 658 ft | 0 kts | 178° |
| 2026-04-27 17:44 | 33.35718 | -7.57237 | 658 ft | 1 kts | 176° |
| 2026-04-27 17:44 | 33.35699 | -7.57220 | 658 ft | 4 kts | 83° |
| 2026-04-27 17:45 | 33.35710 | -7.57209 | 658 ft | 1 kts | 26° |
| 2026-04-27 17:45 | 33.35731 | -7.57195 | 658 ft | 5 kts | 29° |
| 2026-04-27 17:45 | 33.35739 | -7.57190 | 658 ft | 0 kts | 30° |